Main page
METAR-TAF:

METAR-TAF

Airports :

Winkler County Airport

Wink, Texas, United States

latitude: 31-46-47N, longitude: 103-12-05W, elevation: 2821 ft

Current weather observation

The report was made 59 minutes ago, at 01:53 UTC
Wind 6 mph from the East/Southeast
Temperature 93°F
Humidity 28%
Pressure 29.68 in. Hg
Visibility: 10 miles
Clear sky

METAR: KINK 240153Z AUTO 12005KT 10SM CLR 34/13 A2968 RMK AO2 SLP995 T03440128

Time: 21:52 (02:52 UTC)

Forecast

The report was made 3 hours and 11 minutes ago, at 23:41 UTC
Forecast valid from 24 at 00 UTC to 24 at 24 UTC
Wind 9 mph from the Northwest
Visibility: 6 miles
Clear sky
From 24 at 0100 UTC
Wind 12 mph from the Southeast
Visibility: 6 miles
Clear sky
From 24 at 1600 UTC
Wind 17 mph from the Southwest with gusts up to 28 mph
Visibility: 6 miles
Clear sky

TAF: KINK 232341Z 2400/2424 32008KT P6SM SKC FM240100 13010KT P6SM SKC FM241600 23015G24KT P6SM SKC

Weather observations and forecasts of more than 4000 airports (METAR and TAF reports).

The available stations are represented by yellow and red dots on the map.

Hover mouse over dot to see the name of the station.

Then click to see weather observations and forecasts.

To change the map : click on the green buttons with a black cross to zoom in, on the green button with a dash to zoom out, or on the green arrows for adjacent maps.


METAR-TAF: